sensor_id;sensor_type;location;lat;lon;timestamp;P1;P4;P2;P0;N10;N4;N25;N1;N05;TS
84988;SPS30;75301;48.238;16.346;2024-03-02T00:04:45;61.4;;63.6;56.8;;;;;;
84988;SPS30;75301;48.238;16.346;2024-03-02T00:09:44;63.3;;65.5;58.6;;;;;;
84988;SPS30;75301;48.238;16.346;2024-03-02T00:14:44;62.9;;65.2;58.1;;;;;;
84988;SPS30;75301;48.238;16.346;2024-03-02T00:19:44;63.4;;65.8;58.5;;;;;;
84988;SPS30;75301;48.238;16.346;2024-03-02T00:24:44;62.5;;64.5;58.0;;;;;;
84988;SPS30;75301;48.238;16.346;2024-03-02T00:29:44;62.4;;64.9;57.5;;;;;;
84988;SPS30;75301;48.238;16.346;2024-03-02T00:34:44;63.0;;65.8;57.9;;;;;;
84988;SPS30;75301;48.238;16.346;2024-03-02T00:39:44;61.7;;63.7;57.3;;;;;;
84988;SPS30;75301;48.238;16.346;2024-03-02T00:44:44;59.9;;62.1;55.3;;;;;;
84988;SPS30;75301;48.238;16.346;2024-03-02T00:49:44;63.7;;65.9;59.0;;;;;;
84988;SPS30;75301;48.238;16.346;2024-03-02T00:54:44;62.4;;64.5;57.9;;;;;;
84988;SPS30;75301;48.238;16.346;2024-03-02T00:59:44;61.2;;63.7;56.4;;;;;;
84988;SPS30;75301;48.238;16.346;2024-03-02T01:04:44;63.4;;65.0;59.2;;;;;;
84988;SPS30;75301;48.238;16.346;2024-03-02T01:09:44;62.4;;65.2;57.4;;;;;;
84988;SPS30;75301;48.238;16.346;2024-03-02T01:14:44;60.2;;62.2;55.8;;;;;;
84988;SPS30;75301;48.238;16.346;2024-03-02T01:19:44;64.0;;66.8;58.7;;;;;;
84988;SPS30;75301;48.238;16.346;2024-03-02T01:24:44;62.8;;65.5;57.8;;;;;;
84988;SPS30;75301;48.238;16.346;2024-03-02T01:29:44;65.3;;67.6;60.4;;;;;;
84988;SPS30;75301;48.238;16.346;2024-03-02T01:34:44;64.1;;66.8;59.0;;;;;;
84988;SPS30;75301;48.238;16.346;2024-03-02T01:39:44;61.5;;63.6;56.9;;;;;;
84988;SPS30;75301;48.238;16.346;2024-03-02T01:44:44;59.9;;62.4;55.2;;;;;;
84988;SPS30;75301;48.238;16.346;2024-03-02T01:49:44;62.2;;64.6;57.4;;;;;;
84988;SPS30;75301;48.238;16.346;2024-03-02T01:54:44;60.7;;62.8;56.2;;;;;;
84988;SPS30;75301;48.238;16.346;2024-03-02T01:59:44;61.1;;63.8;56.2;;;;;;
84988;SPS30;75301;48.238;16.346;2024-03-02T02:04:44;61.5;;63.9;56.8;;;;;;
84988;SPS30;75301;48.238;16.346;2024-03-02T02:09:44;61.4;;63.5;56.9;;;;;;
84988;SPS30;75301;48.238;16.346;2024-03-02T02:14:48;63.7;;65.8;59.0;;;;;;
84988;SPS30;75301;48.238;16.346;2024-03-02T02:19:44;63.3;;65.5;58.6;;;;;;
84988;SPS30;75301;48.238;16.346;2024-03-02T02:24:44;60.4;;62.9;55.6;;;;;;
84988;SPS30;75301;48.238;16.346;2024-03-02T02:29:44;61.4;;64.1;56.4;;;;;;
84988;SPS30;75301;48.238;16.346;2024-03-02T02:34:44;61.4;;64.0;56.5;;;;;;
84988;SPS30;75301;48.238;16.346;2024-03-02T02:39:44;61.7;;64.4;56.6;;;;;;
84988;SPS30;75301;48.238;16.346;2024-03-02T02:44:44;62.1;;64.9;56.9;;;;;;
84988;SPS30;75301;48.238;16.346;2024-03-02T02:49:44;62.0;;64.3;57.3;;;;;;
84988;SPS30;75301;48.238;16.346;2024-03-02T02:54:44;59.4;;61.4;54.9;;;;;;
84988;SPS30;75301;48.238;16.346;2024-03-02T02:59:44;62.2;;64.4;57.6;;;;;;
84988;SPS30;75301;48.238;16.346;2024-03-02T03:04:44;64.5;;67.4;59.2;;;;;;
84988;SPS30;75301;48.238;16.346;2024-03-02T03:09:44;63.0;;65.2;58.3;;;;;;
84988;SPS30;75301;48.238;16.346;2024-03-02T03:14:44;60.4;;62.7;55.7;;;;;;
84988;SPS30;75301;48.238;16.346;2024-03-02T03:19:44;61.4;;63.9;56.5;;;;;;
84988;SPS30;75301;48.238;16.346;2024-03-02T03:24:44;61.6;;63.7;57.1;;;;;;
84988;SPS30;75301;48.238;16.346;2024-03-02T03:29:44;61.0;;63.9;55.9;;;;;;
84988;SPS30;75301;48.238;16.346;2024-03-02T03:34:44;61.6;;64.1;56.8;;;;;;
84988;SPS30;75301;48.238;16.346;2024-03-02T03:39:44;59.3;;61.4;54.9;;;;;;
84988;SPS30;75301;48.238;16.346;2024-03-02T03:44:44;59.0;;61.1;54.7;;;;;;
84988;SPS30;75301;48.238;16.346;2024-03-02T03:49:44;58.6;;58.9;55.6;;;;;;
84988;SPS30;75301;48.238;16.346;2024-03-02T03:54:44;59.2;;61.6;54.6;;;;;;
84988;SPS30;75301;48.238;16.346;2024-03-02T03:59:44;59.4;;61.9;54.7;;;;;;
84988;SPS30;75301;48.238;16.346;2024-03-02T04:04:44;59.2;;61.7;54.5;;;;;;
84988;SPS30;75301;48.238;16.346;2024-03-02T04:09:44;61.1;;63.5;56.4;;;;;;
84988;SPS30;75301;48.238;16.346;2024-03-02T04:14:44;59.9;;62.3;55.2;;;;;;
84988;SPS30;75301;48.238;16.346;2024-03-02T04:19:44;62.6;;64.6;58.0;;;;;;
84988;SPS30;75301;48.238;16.346;2024-03-02T04:24:44;62.4;;64.6;57.7;;;;;;
84988;SPS30;75301;48.238;16.346;2024-03-02T04:29:44;61.7;;63.5;57.5;;;;;;
84988;SPS30;75301;48.238;16.346;2024-03-02T04:34:44;60.0;;61.9;55.7;;;;;;
84988;SPS30;75301;48.238;16.346;2024-03-02T04:39:44;60.6;;62.8;56.0;;;;;;
84988;SPS30;75301;48.238;16.346;2024-03-02T04:44:44;60.2;;62.4;55.7;;;;;;
84988;SPS30;75301;48.238;16.346;2024-03-02T04:49:44;59.2;;60.7;55.2;;;;;;
84988;SPS30;75301;48.238;16.346;2024-03-02T04:54:44;60.2;;62.1;55.8;;;;;;
84988;SPS30;75301;48.238;16.346;2024-03-02T04:59:44;58.2;;60.4;53.7;;;;;;
84988;SPS30;75301;48.238;16.346;2024-03-02T05:04:44;61.5;;64.2;56.6;;;;;;
84988;SPS30;75301;48.238;16.346;2024-03-02T05:09:44;59.8;;62.6;54.9;;;;;;
84988;SPS30;75301;48.238;16.346;2024-03-02T05:14:45;58.6;;61.0;54.0;;;;;;
84988;SPS30;75301;48.238;16.346;2024-03-02T05:19:44;60.1;;62.9;55.1;;;;;;
84988;SPS30;75301;48.238;16.346;2024-03-02T05:24:44;58.8;;61.0;54.4;;;;;;
84988;SPS30;75301;48.238;16.346;2024-03-02T05:29:44;58.5;;60.9;53.9;;;;;;
84988;SPS30;75301;48.238;16.346;2024-03-02T05:34:44;58.3;;59.9;54.3;;;;;;
84988;SPS30;75301;48.238;16.346;2024-03-02T05:39:44;58.4;;60.7;53.9;;;;;;
84988;SPS30;75301;48.238;16.346;2024-03-02T05:44:44;56.4;;58.3;52.3;;;;;;
84988;SPS30;75301;48.238;16.346;2024-03-02T05:49:44;57.1;;58.5;53.4;;;;;;
84988;SPS30;75301;48.238;16.346;2024-03-02T05:54:44;57.0;;59.2;52.6;;;;;;
84988;SPS30;75301;48.238;16.346;2024-03-02T05:59:44;57.0;;58.1;53.5;;;;;;
84988;SPS30;75301;48.238;16.346;2024-03-02T06:04:44;54.2;;55.6;50.5;;;;;;
84988;SPS30;75301;48.238;16.346;2024-03-02T06:09:44;51.4;;52.8;47.9;;;;;;
84988;SPS30;75301;48.238;16.346;2024-03-02T06:14:44;52.5;;53.8;49.1;;;;;;
84988;SPS30;75301;48.238;16.346;2024-03-02T06:19:44;50.5;;52.5;46.6;;;;;;
84988;SPS30;75301;48.238;16.346;2024-03-02T06:24:44;50.1;;51.8;46.3;;;;;;
84988;SPS30;75301;48.238;16.346;2024-03-02T06:29:44;48.3;;50.2;44.5;;;;;;
84988;SPS30;75301;48.238;16.346;2024-03-02T06:34:44;42.7;;44.1;39.6;;;;;;
84988;SPS30;75301;48.238;16.346;2024-03-02T06:39:44;41.9;;43.9;38.3;;;;;;
84988;SPS30;75301;48.238;16.346;2024-03-02T06:44:44;40.1;;41.6;37.1;;;;;;
84988;SPS30;75301;48.238;16.346;2024-03-02T06:49:44;43.7;;45.3;40.4;;;;;;
84988;SPS30;75301;48.238;16.346;2024-03-02T06:54:44;44.1;;45.5;41.0;;;;;;
84988;SPS30;75301;48.238;16.346;2024-03-02T06:59:44;44.3;;46.1;40.8;;;;;;
84988;SPS30;75301;48.238;16.346;2024-03-02T07:04:44;45.3;;47.1;41.8;;;;;;
84988;SPS30;75301;48.238;16.346;2024-03-02T07:09:44;45.5;;47.3;42.0;;;;;;
84988;SPS30;75301;48.238;16.346;2024-03-02T07:14:44;45.8;;47.7;42.1;;;;;;
84988;SPS30;75301;48.238;16.346;2024-03-02T07:19:44;46.0;;48.4;42.1;;;;;;
84988;SPS30;75301;48.238;16.346;2024-03-02T07:24:44;47.2;;49.3;43.3;;;;;;
84988;SPS30;75301;48.238;16.346;2024-03-02T07:29:44;47.9;;50.0;44.0;;;;;;
84988;SPS30;75301;48.238;16.346;2024-03-02T07:34:44;45.7;;45.9;43.4;;;;;;
84988;SPS30;75301;48.238;16.346;2024-03-02T07:39:44;44.7;;45.2;42.1;;;;;;
84988;SPS30;75301;48.238;16.346;2024-03-02T07:44:44;43.0;;44.7;39.6;;;;;;
84988;SPS30;75301;48.238;16.346;2024-03-02T07:49:45;41.7;;43.4;38.4;;;;;;
84988;SPS30;75301;48.238;16.346;2024-03-02T07:54:44;43.7;;45.8;40.1;;;;;;
84988;SPS30;75301;48.238;16.346;2024-03-02T07:59:44;42.3;;44.3;38.7;;;;;;
84988;SPS30;75301;48.238;16.346;2024-03-02T08:04:44;43.2;;44.4;40.2;;;;;;
84988;SPS30;75301;48.238;16.346;2024-03-02T08:09:44;42.3;;43.8;39.1;;;;;;
84988;SPS30;75301;48.238;16.346;2024-03-02T08:14:44;41.5;;42.6;38.8;;;;;;
84988;SPS30;75301;48.238;16.346;2024-03-02T08:19:44;41.9;;43.6;38.7;;;;;;
84988;SPS30;75301;48.238;16.346;2024-03-02T08:24:44;41.8;;42.8;39.0;;;;;;
84988;SPS30;75301;48.238;16.346;2024-03-02T08:29:44;42.4;;43.9;39.2;;;;;;
84988;SPS30;75301;48.238;16.346;2024-03-02T08:34:44;41.8;;43.8;38.3;;;;;;
84988;SPS30;75301;48.238;16.346;2024-03-02T08:39:44;42.5;;44.2;39.2;;;;;;
84988;SPS30;75301;48.238;16.346;2024-03-02T08:44:44;41.6;;42.1;39.2;;;;;;
84988;SPS30;75301;48.238;16.346;2024-03-02T08:49:44;44.7;;46.4;41.3;;;;;;
84988;SPS30;75301;48.238;16.346;2024-03-02T08:54:44;43.5;;44.7;40.6;;;;;;
84988;SPS30;75301;48.238;16.346;2024-03-02T08:59:44;45.6;;47.0;42.4;;;;;;
84988;SPS30;75301;48.238;16.346;2024-03-02T09:04:44;45.0;;46.8;41.5;;;;;;
84988;SPS30;75301;48.238;16.346;2024-03-02T09:09:44;42.2;;43.6;39.1;;;;;;
84988;SPS30;75301;48.238;16.346;2024-03-02T09:14:44;44.4;;46.2;41.0;;;;;;
84988;SPS30;75301;48.238;16.346;2024-03-02T09:19:44;44.4;;46.4;40.8;;;;;;
84988;SPS30;75301;48.238;16.346;2024-03-02T09:24:44;47.2;;49.2;43.4;;;;;;
84988;SPS30;75301;48.238;16.346;2024-03-02T09:29:44;49.1;;51.0;45.4;;;;;;
84988;SPS30;75301;48.238;16.346;2024-03-02T09:34:44;46.9;;48.8;43.2;;;;;;
84988;SPS30;75301;48.238;16.346;2024-03-02T09:39:44;50.8;;52.3;47.3;;;;;;
84988;SPS30;75301;48.238;16.346;2024-03-02T09:44:44;46.9;;48.8;43.2;;;;;;
84988;SPS30;75301;48.238;16.346;2024-03-02T09:49:44;48.8;;50.0;45.6;;;;;;
84988;SPS30;75301;48.238;16.346;2024-03-02T09:54:44;47.3;;49.4;43.5;;;;;;
84988;SPS30;75301;48.238;16.346;2024-03-02T09:59:44;51.4;;53.5;47.3;;;;;;
84988;SPS30;75301;48.238;16.346;2024-03-02T10:04:44;50.6;;51.7;47.3;;;;;;
84988;SPS30;75301;48.238;16.346;2024-03-02T10:09:44;50.8;;53.5;46.2;;;;;;
84988;SPS30;75301;48.238;16.346;2024-03-02T10:14:44;50.9;;53.1;46.7;;;;;;
84988;SPS30;75301;48.238;16.346;2024-03-02T10:19:44;54.5;;57.2;49.9;;;;;;
84988;SPS30;75301;48.238;16.346;2024-03-02T10:24:44;54.2;;56.8;49.6;;;;;;
84988;SPS30;75301;48.238;16.346;2024-03-02T10:29:46;53.4;;54.9;49.7;;;;;;
84988;SPS30;75301;48.238;16.346;2024-03-02T10:34:45;54.2;;56.7;49.8;;;;;;
84988;SPS30;75301;48.238;16.346;2024-03-02T10:39:44;57.1;;59.2;52.8;;;;;;
84988;SPS30;75301;48.238;16.346;2024-03-02T10:44:44;54.6;;57.0;50.1;;;;;;
84988;SPS30;75301;48.238;16.346;2024-03-02T10:49:44;50.8;;51.5;47.8;;;;;;
84988;SPS30;75301;48.238;16.346;2024-03-02T10:54:44;52.3;;54.1;48.4;;;;;;
84988;SPS30;75301;48.238;16.346;2024-03-02T10:59:46;52.8;;54.9;48.7;;;;;;
84988;SPS30;75301;48.238;16.346;2024-03-02T11:04:44;54.4;;57.5;49.5;;;;;;
84988;SPS30;75301;48.238;16.346;2024-03-02T11:09:45;54.5;;57.0;50.0;;;;;;
84988;SPS30;75301;48.238;16.346;2024-03-02T11:14:44;51.9;;53.1;48.6;;;;;;
84988;SPS30;75301;48.238;16.346;2024-03-02T11:19:44;53.2;;54.5;49.7;;;;;;
84988;SPS30;75301;48.238;16.346;2024-03-02T11:24:48;51.7;;52.9;48.4;;;;;;
84988;SPS30;75301;48.238;16.346;2024-03-02T11:29:44;51.6;;52.7;48.4;;;;;;
84988;SPS30;75301;48.238;16.346;2024-03-02T11:34:45;49.8;;51.9;45.8;;;;;;
84988;SPS30;75301;48.238;16.346;2024-03-02T11:39:46;49.4;;51.3;45.7;;;;;;
84988;SPS30;75301;48.238;16.346;2024-03-02T11:44:44;49.5;;51.7;45.5;;;;;;
84988;SPS30;75301;48.238;16.346;2024-03-02T11:49:45;50.0;;50.8;47.0;;;;;;
84988;SPS30;75301;48.238;16.346;2024-03-02T11:54:44;53.0;;54.2;49.5;;;;;;
84988;SPS30;75301;48.238;16.346;2024-03-02T11:59:44;53.1;;55.3;48.9;;;;;;
84988;SPS30;75301;48.238;16.346;2024-03-02T12:04:44;53.1;;54.1;49.9;;;;;;
84988;SPS30;75301;48.238;16.346;2024-03-02T12:09:44;56.8;;59.0;52.4;;;;;;
84988;SPS30;75301;48.238;16.346;2024-03-02T12:14:50;57.3;;57.9;54.1;;;;;;
84988;SPS30;75301;48.238;16.346;2024-03-02T12:19:44;58.3;;61.6;53.0;;;;;;
84988;SPS30;75301;48.238;16.346;2024-03-02T12:24:44;52.5;;52.8;49.8;;;;;;
84988;SPS30;75301;48.238;16.346;2024-03-02T12:29:44;53.9;;56.5;49.4;;;;;;
84988;SPS30;75301;48.238;16.346;2024-03-02T12:34:46;52.2;;52.2;49.8;;;;;;
84988;SPS30;75301;48.238;16.346;2024-03-02T12:39:45;52.6;;53.5;49.4;;;;;;
84988;SPS30;75301;48.238;16.346;2024-03-02T12:44:44;49.9;;49.9;47.6;;;;;;
84988;SPS30;75301;48.238;16.346;2024-03-02T12:49:44;51.5;;53.0;48.0;;;;;;
84988;SPS30;75301;48.238;16.346;2024-03-02T12:54:44;52.2;;54.3;48.2;;;;;;
84988;SPS30;75301;48.238;16.346;2024-03-02T12:59:45;48.4;;49.5;45.3;;;;;;
84988;SPS30;75301;48.238;16.346;2024-03-02T13:04:44;47.5;;48.7;44.4;;;;;;
84988;SPS30;75301;48.238;16.346;2024-03-02T13:09:44;47.7;;48.9;44.4;;;;;;
84988;SPS30;75301;48.238;16.346;2024-03-02T13:14:44;47.6;;49.6;43.8;;;;;;
84988;SPS30;75301;48.238;16.346;2024-03-02T13:19:51;47.8;;47.9;45.5;;;;;;
84988;SPS30;75301;48.238;16.346;2024-03-02T13:24:44;49.1;;49.1;46.8;;;;;;
84988;SPS30;75301;48.238;16.346;2024-03-02T13:29:44;48.8;;48.8;46.5;;;;;;
84988;SPS30;75301;48.238;16.346;2024-03-02T13:34:44;48.8;;49.9;45.7;;;;;;
84988;SPS30;75301;48.238;16.346;2024-03-02T13:39:44;46.3;;46.8;43.9;;;;;;
84988;SPS30;75301;48.238;16.346;2024-03-02T13:44:44;46.5;;47.7;43.5;;;;;;
84988;SPS30;75301;48.238;16.346;2024-03-02T13:49:44;44.5;;44.5;42.4;;;;;;
84988;SPS30;75301;48.238;16.346;2024-03-02T13:54:45;48.3;;49.3;45.2;;;;;;
84988;SPS30;75301;48.238;16.346;2024-03-02T13:59:44;43.8;;43.8;41.7;;;;;;
84988;SPS30;75301;48.238;16.346;2024-03-02T14:04:44;42.9;;43.3;40.6;;;;;;
84988;SPS30;75301;48.238;16.346;2024-03-02T14:09:44;46.0;;47.1;43.1;;;;;;
84988;SPS30;75301;48.238;16.346;2024-03-02T14:14:44;43.8;;43.8;41.8;;;;;;
84988;SPS30;75301;48.238;16.346;2024-03-02T14:19:44;44.9;;45.4;42.5;;;;;;
84988;SPS30;75301;48.238;16.346;2024-03-02T14:24:44;49.5;;52.1;45.2;;;;;;
84988;SPS30;75301;48.238;16.346;2024-03-02T14:29:44;47.2;;48.3;44.2;;;;;;
84988;SPS30;75301;48.238;16.346;2024-03-02T14:34:44;47.0;;48.4;43.8;;;;;;
84988;SPS30;75301;48.238;16.346;2024-03-02T14:39:44;47.5;;48.1;44.8;;;;;;
84988;SPS30;75301;48.238;16.346;2024-03-02T14:44:44;49.7;;52.0;45.5;;;;;;
84988;SPS30;75301;48.238;16.346;2024-03-02T14:49:44;50.6;;52.8;46.6;;;;;;
84988;SPS30;75301;48.238;16.346;2024-03-02T14:54:44;49.7;;51.8;45.7;;;;;;
84988;SPS30;75301;48.238;16.346;2024-03-02T14:59:44;51.0;;52.8;47.2;;;;;;
84988;SPS30;75301;48.238;16.346;2024-03-02T15:04:44;51.6;;53.4;47.8;;;;;;
84988;SPS30;75301;48.238;16.346;2024-03-02T15:09:44;52.2;;55.3;47.4;;;;;;
84988;SPS30;75301;48.238;16.346;2024-03-02T15:14:44;51.1;;53.9;46.6;;;;;;
84988;SPS30;75301;48.238;16.346;2024-03-02T15:19:44;51.6;;53.5;47.7;;;;;;
84988;SPS30;75301;48.238;16.346;2024-03-02T15:24:44;53.3;;56.1;48.7;;;;;;
84988;SPS30;75301;48.238;16.346;2024-03-02T15:29:44;50.6;;51.5;47.6;;;;;;
84988;SPS30;75301;48.238;16.346;2024-03-02T15:34:44;51.2;;54.0;46.7;;;;;;
84988;SPS30;75301;48.238;16.346;2024-03-02T15:39:44;51.9;;54.2;47.6;;;;;;
84988;SPS30;75301;48.238;16.346;2024-03-02T15:44:44;52.5;;54.9;48.1;;;;;;
84988;SPS30;75301;48.238;16.346;2024-03-02T15:49:44;53.4;;53.5;50.9;;;;;;
84988;SPS30;75301;48.238;16.346;2024-03-02T15:54:44;53.8;;56.1;49.5;;;;;;
84988;SPS30;75301;48.238;16.346;2024-03-02T15:59:44;48.9;;49.0;46.5;;;;;;
84988;SPS30;75301;48.238;16.346;2024-03-02T16:04:44;54.8;;55.8;51.5;;;;;;
84988;SPS30;75301;48.238;16.346;2024-03-02T16:09:44;52.3;;54.5;48.2;;;;;;
84988;SPS30;75301;48.238;16.346;2024-03-02T16:14:44;50.6;;53.4;46.0;;;;;;
84988;SPS30;75301;48.238;16.346;2024-03-02T16:19:44;64.4;;67.1;59.2;;;;;;
84988;SPS30;75301;48.238;16.346;2024-03-02T16:24:44;54.3;;57.1;49.5;;;;;;
84988;SPS30;75301;48.238;16.346;2024-03-02T16:29:44;49.1;;51.5;45.0;;;;;;
84988;SPS30;75301;48.238;16.346;2024-03-02T16:34:44;47.2;;48.9;43.6;;;;;;
84988;SPS30;75301;48.238;16.346;2024-03-02T16:39:44;46.5;;48.5;42.8;;;;;;
84988;SPS30;75301;48.238;16.346;2024-03-02T16:44:44;45.2;;46.0;42.5;;;;;;
84988;SPS30;75301;48.238;16.346;2024-03-02T16:49:44;44.1;;44.3;41.9;;;;;;
84988;SPS30;75301;48.238;16.346;2024-03-02T16:54:47;45.0;;45.1;42.9;;;;;;
84988;SPS30;75301;48.238;16.346;2024-03-02T16:59:44;42.8;;43.7;40.2;;;;;;
84988;SPS30;75301;48.238;16.346;2024-03-02T17:04:44;42.6;;44.5;39.1;;;;;;
84988;SPS30;75301;48.238;16.346;2024-03-02T17:09:44;44.8;;47.4;40.7;;;;;;
84988;SPS30;75301;48.238;16.346;2024-03-02T17:14:44;46.3;;49.2;41.9;;;;;;
84988;SPS30;75301;48.238;16.346;2024-03-02T17:19:44;46.4;;48.7;42.4;;;;;;
84988;SPS30;75301;48.238;16.346;2024-03-02T17:24:44;46.0;;47.2;42.8;;;;;;
84988;SPS30;75301;48.238;16.346;2024-03-02T17:29:44;45.7;;47.0;42.7;;;;;;
84988;SPS30;75301;48.238;16.346;2024-03-02T17:34:44;43.5;;43.9;41.1;;;;;;
84988;SPS30;75301;48.238;16.346;2024-03-02T17:39:44;46.9;;49.5;42.6;;;;;;
84988;SPS30;75301;48.238;16.346;2024-03-02T17:44:44;45.6;;46.8;42.6;;;;;;
84988;SPS30;75301;48.238;16.346;2024-03-02T17:49:44;46.9;;49.7;42.6;;;;;;
84988;SPS30;75301;48.238;16.346;2024-03-02T17:54:44;45.8;;47.5;42.3;;;;;;
84988;SPS30;75301;48.238;16.346;2024-03-02T17:59:44;43.9;;46.1;40.1;;;;;;
84988;SPS30;75301;48.238;16.346;2024-03-02T18:04:44;44.1;;45.0;41.4;;;;;;
84988;SPS30;75301;48.238;16.346;2024-03-02T18:09:44;47.4;;50.2;43.0;;;;;;
84988;SPS30;75301;48.238;16.346;2024-03-02T18:14:44;43.4;;43.5;41.3;;;;;;
84988;SPS30;75301;48.238;16.346;2024-03-02T18:19:44;43.7;;44.8;40.9;;;;;;
84988;SPS30;75301;48.238;16.346;2024-03-02T18:24:44;44.4;;46.4;40.7;;;;;;
84988;SPS30;75301;48.238;16.346;2024-03-02T18:29:44;42.6;;43.0;40.2;;;;;;
84988;SPS30;75301;48.238;16.346;2024-03-02T18:34:44;44.2;;46.1;40.6;;;;;;
84988;SPS30;75301;48.238;16.346;2024-03-02T18:39:44;41.3;;41.5;39.3;;;;;;
84988;SPS30;75301;48.238;16.346;2024-03-02T18:44:44;41.7;;42.2;39.4;;;;;;
84988;SPS30;75301;48.238;16.346;2024-03-02T18:49:44;41.7;;43.6;38.2;;;;;;
84988;SPS30;75301;48.238;16.346;2024-03-02T18:54:44;40.3;;42.0;37.1;;;;;;
84988;SPS30;75301;48.238;16.346;2024-03-02T18:59:44;42.2;;44.5;38.4;;;;;;
84988;SPS30;75301;48.238;16.346;2024-03-02T19:04:44;40.9;;41.2;38.7;;;;;;
84988;SPS30;75301;48.238;16.346;2024-03-02T19:09:44;41.8;;41.8;39.9;;;;;;
84988;SPS30;75301;48.238;16.346;2024-03-02T19:14:44;40.3;;41.1;37.8;;;;;;
84988;SPS30;75301;48.238;16.346;2024-03-02T19:19:44;41.5;;41.5;39.6;;;;;;
84988;SPS30;75301;48.238;16.346;2024-03-02T19:24:44;40.2;;42.1;36.8;;;;;;
84988;SPS30;75301;48.238;16.346;2024-03-02T19:29:44;40.3;;41.5;37.4;;;;;;
84988;SPS30;75301;48.238;16.346;2024-03-02T19:34:45;40.6;;42.8;37.0;;;;;;
84988;SPS30;75301;48.238;16.346;2024-03-02T19:39:44;40.5;;42.8;36.8;;;;;;
84988;SPS30;75301;48.238;16.346;2024-03-02T19:44:44;41.0;;43.4;37.3;;;;;;
84988;SPS30;75301;48.238;16.346;2024-03-02T19:49:44;41.0;;43.1;37.4;;;;;;
84988;SPS30;75301;48.238;16.346;2024-03-02T19:54:44;40.9;;42.7;37.6;;;;;;
84988;SPS30;75301;48.238;16.346;2024-03-02T19:59:44;39.1;;39.8;36.8;;;;;;
84988;SPS30;75301;48.238;16.346;2024-03-02T20:04:45;41.7;;43.9;38.1;;;;;;
84988;SPS30;75301;48.238;16.346;2024-03-02T20:09:44;44.2;;46.2;40.6;;;;;;
84988;SPS30;75301;48.238;16.346;2024-03-02T20:14:45;42.9;;44.9;39.3;;;;;;
84988;SPS30;75301;48.238;16.346;2024-03-02T20:19:44;42.2;;44.4;38.6;;;;;;
84988;SPS30;75301;48.238;16.346;2024-03-02T20:24:44;40.5;;42.0;37.4;;;;;;
84988;SPS30;75301;48.238;16.346;2024-03-02T20:29:44;41.7;;43.5;38.3;;;;;;
84988;SPS30;75301;48.238;16.346;2024-03-02T20:34:44;40.8;;42.9;37.3;;;;;;
84988;SPS30;75301;48.238;16.346;2024-03-02T20:39:44;41.1;;43.2;37.6;;;;;;
84988;SPS30;75301;48.238;16.346;2024-03-02T20:44:44;42.4;;44.1;39.1;;;;;;
84988;SPS30;75301;48.238;16.346;2024-03-02T20:49:44;41.0;;42.8;37.7;;;;;;
84988;SPS30;75301;48.238;16.346;2024-03-02T20:54:44;41.7;;43.5;38.4;;;;;;
84988;SPS30;75301;48.238;16.346;2024-03-02T20:59:44;43.7;;45.9;40.0;;;;;;
84988;SPS30;75301;48.238;16.346;2024-03-02T21:04:44;45.9;;48.1;42.1;;;;;;
84988;SPS30;75301;48.238;16.346;2024-03-02T21:09:44;44.5;;46.1;41.1;;;;;;
84988;SPS30;75301;48.238;16.346;2024-03-02T21:14:44;45.2;;47.6;41.3;;;;;;
84988;SPS30;75301;48.238;16.346;2024-03-02T21:19:44;44.6;;46.6;40.9;;;;;;
84988;SPS30;75301;48.238;16.346;2024-03-02T21:24:44;44.3;;46.2;40.8;;;;;;
84988;SPS30;75301;48.238;16.346;2024-03-02T21:29:44;45.5;;48.2;41.2;;;;;;
84988;SPS30;75301;48.238;16.346;2024-03-02T21:34:44;44.3;;46.1;40.8;;;;;;
84988;SPS30;75301;48.238;16.346;2024-03-02T21:39:45;45.5;;47.6;41.7;;;;;;
84988;SPS30;75301;48.238;16.346;2024-03-02T21:44:44;44.3;;46.4;40.5;;;;;;
84988;SPS30;75301;48.238;16.346;2024-03-02T21:49:44;44.7;;46.0;41.6;;;;;;
84988;SPS30;75301;48.238;16.346;2024-03-02T21:54:44;47.7;;49.7;43.8;;;;;;
84988;SPS30;75301;48.238;16.346;2024-03-02T21:59:44;45.5;;47.6;41.8;;;;;;
84988;SPS30;75301;48.238;16.346;2024-03-02T22:04:44;47.1;;49.0;43.3;;;;;;
84988;SPS30;75301;48.238;16.346;2024-03-02T22:09:44;47.0;;48.8;43.3;;;;;;
84988;SPS30;75301;48.238;16.346;2024-03-02T22:14:44;48.8;;50.5;45.1;;;;;;
84988;SPS30;75301;48.238;16.346;2024-03-02T22:19:44;49.5;;50.7;46.3;;;;;;
84988;SPS30;75301;48.238;16.346;2024-03-02T22:24:44;51.5;;53.9;47.3;;;;;;
84988;SPS30;75301;48.238;16.346;2024-03-02T22:29:44;48.8;;51.3;44.5;;;;;;
84988;SPS30;75301;48.238;16.346;2024-03-02T22:34:44;52.6;;55.1;48.3;;;;;;
84988;SPS30;75301;48.238;16.346;2024-03-02T22:39:44;53.5;;56.0;49.1;;;;;;
84988;SPS30;75301;48.238;16.346;2024-03-02T22:44:44;51.1;;52.9;47.2;;;;;;
84988;SPS30;75301;48.238;16.346;2024-03-02T22:49:44;53.0;;55.2;48.8;;;;;;
84988;SPS30;75301;48.238;16.346;2024-03-02T22:54:44;50.2;;52.2;46.3;;;;;;
84988;SPS30;75301;48.238;16.346;2024-03-02T22:59:45;52.9;;56.0;48.0;;;;;;
84988;SPS30;75301;48.238;16.346;2024-03-02T23:04:44;53.5;;55.8;49.1;;;;;;
84988;SPS30;75301;48.238;16.346;2024-03-02T23:09:44;52.5;;54.7;48.4;;;;;;
84988;SPS30;75301;48.238;16.346;2024-03-02T23:14:45;53.8;;56.6;49.1;;;;;;
84988;SPS30;75301;48.238;16.346;2024-03-02T23:19:44;51.2;;53.4;47.1;;;;;;
84988;SPS30;75301;48.238;16.346;2024-03-02T23:24:44;53.7;;55.8;49.6;;;;;;
84988;SPS30;75301;48.238;16.346;2024-03-02T23:29:44;53.9;;56.6;49.2;;;;;;
84988;SPS30;75301;48.238;16.346;2024-03-02T23:34:44;50.7;;52.7;46.7;;;;;;
84988;SPS30;75301;48.238;16.346;2024-03-02T23:39:45;52.5;;54.9;48.1;;;;;;
84988;SPS30;75301;48.238;16.346;2024-03-02T23:44:44;51.5;;53.4;47.6;;;;;;
84988;SPS30;75301;48.238;16.346;2024-03-02T23:49:44;50.3;;52.2;46.5;;;;;;
84988;SPS30;75301;48.238;16.346;2024-03-02T23:54:44;53.5;;56.3;48.9;;;;;;
84988;SPS30;75301;48.238;16.346;2024-03-02T23:59:44;51.7;;54.2;47.3;;;;;;
